createdAt,value
2018-11-20T00:00:32.525Z,1.16
2018-11-20T00:03:22.315Z,1.20
2018-11-20T00:06:12.074Z,1.21
2018-11-20T00:09:01.887Z,1.16
2018-11-20T00:11:51.618Z,1.14
2018-11-20T00:14:41.391Z,1.22
2018-11-20T00:17:31.616Z,1.11
2018-11-20T00:20:12.921Z,1.02
2018-11-20T00:23:02.720Z,1.07
2018-11-20T00:25:46.620Z,1.11
2018-11-20T00:28:36.711Z,1.14
2018-11-20T00:31:26.450Z,1.23
2018-11-20T00:34:08.850Z,1.24
2018-11-20T00:36:48.908Z,1.30
2018-11-20T00:39:38.484Z,1.38
2018-11-20T00:42:28.349Z,1.27
2018-11-20T00:45:17.965Z,1.21
2018-11-20T00:48:07.721Z,1.09
2018-11-20T00:50:57.509Z,1.11
2018-11-20T00:53:47.290Z,1.16
2018-11-20T00:56:58.828Z,1.24
2018-11-20T00:59:50.602Z,1.21
2018-11-20T01:02:40.327Z,1.09
2018-11-20T01:05:30.242Z,1.08
2018-11-20T01:08:19.879Z,1.10
2018-11-20T01:11:09.620Z,1.07
2018-11-20T01:13:59.364Z,1.16
2018-11-20T01:16:49.140Z,1.10
2018-11-20T01:19:30.247Z,1.09
2018-11-20T01:22:20.024Z,1.03
2018-11-20T01:25:01.145Z,0.99
2018-11-20T01:27:50.788Z,1.04
2018-11-20T01:30:40.508Z,1.12
2018-11-20T01:33:30.360Z,1.14
2018-11-20T01:36:20.193Z,1.08
2018-11-20T01:39:09.940Z,1.13
2018-11-20T01:41:59.698Z,1.12
2018-11-20T01:44:49.417Z,1.17
2018-11-20T01:47:39.163Z,1.15
2018-11-20T01:50:29.014Z,1.19
2018-11-20T01:53:18.723Z,1.25
2018-11-20T01:56:08.540Z,1.22
2018-11-20T01:58:58.301Z,1.06
2018-11-20T02:01:48.260Z,1.13
2018-11-20T02:04:35.670Z,1.12
2018-11-20T02:07:27.192Z,1.10
2018-11-20T02:10:16.945Z,0.92
2018-11-20T02:13:46.691Z,0.83
2018-11-20T02:16:36.461Z,0.83
2018-11-20T02:19:26.288Z,0.90
2018-11-20T02:22:16.058Z,0.81
2018-11-20T02:25:05.833Z,0.73
2018-11-20T02:27:55.621Z,0.81
2018-11-20T02:30:45.450Z,0.79
2018-11-20T02:33:37.763Z,0.81
2018-11-20T02:36:27.853Z,0.87
2018-11-20T02:39:17.724Z,0.83
2018-11-20T02:42:07.492Z,0.81
2018-11-20T02:44:57.273Z,0.81
2018-11-20T02:47:47.050Z,0.79
2018-11-20T02:50:36.901Z,0.80
2018-11-20T02:53:26.743Z,0.76
2018-11-20T02:56:07.770Z,0.88
2018-11-20T02:58:57.463Z,0.80
2018-11-20T03:01:47.234Z,0.67
2018-11-20T03:04:37.470Z,0.70
2018-11-20T03:07:27.243Z,0.72
2018-11-20T03:10:17.061Z,0.68
2018-11-20T03:13:06.811Z,0.64
2018-11-20T03:15:56.712Z,0.59
2018-11-20T03:18:46.462Z,0.57
2018-11-20T03:21:36.232Z,0.52
2018-11-20T03:24:26.260Z,0.63
2018-11-20T03:27:16.105Z,0.60
2018-11-20T03:30:43.353Z,0.68
2018-11-20T03:33:33.169Z,0.59
2018-11-20T03:36:23.017Z,0.63
2018-11-20T03:39:12.831Z,0.56
2018-11-20T03:42:11.302Z,0.57
2018-11-20T03:45:01.149Z,0.61
2018-11-20T03:47:50.989Z,0.69
2018-11-20T03:50:40.739Z,0.72
2018-11-20T03:53:30.488Z,0.81
2018-11-20T03:56:20.333Z,0.84
2018-11-20T03:59:10.103Z,0.71
2018-11-20T04:01:59.851Z,0.65
2018-11-20T04:04:49.620Z,0.56
2018-11-20T04:07:39.299Z,0.62
2018-11-20T04:10:29.081Z,0.59
2018-11-20T04:13:18.910Z,0.64
2018-11-20T04:16:08.674Z,0.61
2018-11-20T04:18:50.074Z,0.54
2018-11-20T04:21:39.850Z,0.61
2018-11-20T04:24:29.671Z,0.66
2018-11-20T04:27:19.470Z,0.69
2018-11-20T04:30:26.290Z,0.80
2018-11-20T04:33:53.428Z,0.89
2018-11-20T04:36:44.240Z,0.91
2018-11-20T04:39:34.019Z,0.87
2018-11-20T04:42:23.788Z,0.73
2018-11-20T04:45:13.588Z,0.75
2018-11-20T04:48:01.849Z,0.78
2018-11-20T04:50:51.506Z,0.77
2018-11-20T04:53:41.262Z,0.71
2018-11-20T04:56:31.094Z,0.70
2018-11-20T04:59:20.723Z,0.53
2018-11-20T05:02:10.399Z,0.55
2018-11-20T05:05:00.163Z,0.50
2018-11-20T05:07:49.931Z,0.65
2018-11-20T05:10:39.699Z,0.68
2018-11-20T05:13:29.648Z,0.61
2018-11-20T05:16:19.209Z,0.64
2018-11-20T05:19:10.178Z,0.65
2018-11-20T05:21:59.939Z,0.65
2018-11-20T05:24:49.769Z,0.75
2018-11-20T05:27:29.543Z,0.61
2018-11-20T05:30:19.233Z,0.64
2018-11-20T05:33:09.110Z,0.66
2018-11-20T05:35:58.893Z,0.59
2018-11-20T05:38:48.755Z,0.68
2018-11-20T05:41:38.478Z,0.66
2018-11-20T05:44:28.298Z,0.63
2018-11-20T05:47:18.118Z,0.59
2018-11-20T05:50:07.926Z,0.65
2018-11-20T05:52:57.678Z,0.68
2018-11-20T05:55:47.418Z,0.75
2018-11-20T05:58:37.213Z,0.74
2018-11-20T06:01:25.419Z,0.86
2018-11-20T06:04:06.824Z,0.98
2018-11-20T06:06:56.474Z,0.95
2018-11-20T06:09:46.174Z,0.95
2018-11-20T06:12:55.568Z,0.92
2018-11-20T06:15:45.265Z,1.08
2018-11-20T06:18:35.014Z,1.05
2018-11-20T06:21:25.143Z,1.04
2018-11-20T06:24:04.759Z,1.04
2018-11-20T06:26:54.587Z,1.09
2018-11-20T06:29:44.340Z,1.10
2018-11-20T06:32:34.089Z,1.14
2018-11-20T06:35:23.861Z,1.12
2018-11-20T06:38:13.679Z,1.15
2018-11-20T06:41:03.531Z,1.21
2018-11-20T06:43:53.254Z,1.26
2018-11-20T06:46:43.023Z,1.25
2018-11-20T06:49:32.834Z,1.30
2018-11-20T06:52:22.555Z,1.21
2018-11-20T06:55:12.315Z,1.30
2018-11-20T06:58:02.050Z,1.29
2018-11-20T07:00:51.847Z,1.29
2018-11-20T07:03:44.474Z,1.41
2018-11-20T07:06:34.355Z,1.36
2018-11-20T07:09:24.434Z,1.38
2018-11-20T07:12:23.067Z,1.44
2018-11-20T07:15:12.777Z,1.40
2018-11-20T07:18:02.451Z,1.34
2018-11-20T07:20:52.092Z,1.40
2018-11-20T07:23:41.924Z,1.38
2018-11-20T07:26:31.794Z,1.49
2018-11-20T07:29:21.641Z,1.49
2018-11-20T07:32:11.404Z,1.58
2018-11-20T07:35:01.252Z,1.65
2018-11-20T07:37:50.904Z,1.70
2018-11-20T07:40:40.670Z,1.80
2018-11-20T07:43:29.481Z,1.88
2018-11-20T07:46:19.110Z,1.94
2018-11-20T07:49:08.842Z,1.93
2018-11-20T07:51:58.680Z,1.92
2018-11-20T07:54:48.512Z,2.09
2018-11-20T07:57:38.284Z,2.21
2018-11-20T08:00:28.111Z,2.38
2018-11-20T08:03:17.942Z,2.56
2018-11-20T08:06:07.732Z,2.68
2018-11-20T08:08:57.553Z,2.81
2018-11-20T08:11:47.360Z,2.81
2018-11-20T08:14:37.237Z,2.94
2018-11-20T08:17:26.989Z,3.10
2018-11-20T08:20:16.874Z,3.26
2018-11-20T08:23:06.585Z,3.52
2018-11-20T08:25:56.492Z,3.61
2018-11-20T08:28:46.199Z,3.79
2018-11-20T08:31:36.063Z,3.78
2018-11-20T08:34:25.832Z,3.72
2018-11-20T08:37:07.293Z,3.39
2018-11-20T08:39:56.903Z,3.21
2018-11-20T08:42:46.803Z,3.23
2018-11-20T08:45:36.646Z,3.27
2018-11-20T08:48:14.926Z,3.25
2018-11-20T08:51:04.616Z,3.12
2018-11-20T08:53:54.410Z,3.11
2018-11-20T08:56:44.197Z,3.23
2018-11-20T08:59:34.062Z,3.36
2018-11-20T09:02:23.983Z,3.73
2018-11-20T09:05:13.667Z,4.04
2018-11-20T09:08:03.391Z,4.39
2018-11-20T09:10:53.084Z,4.64
2018-11-20T09:13:43.043Z,4.77
2018-11-20T09:16:32.861Z,4.90
2018-11-20T09:19:22.759Z,5.03
2018-11-20T09:22:12.529Z,4.95
2018-11-20T09:25:02.378Z,4.99
2018-11-20T09:27:45.427Z,5.05
2018-11-20T09:30:35.057Z,5.21
2018-11-20T09:33:25.130Z,5.20
2018-11-20T09:36:14.965Z,4.98
2018-11-20T09:39:04.776Z,4.96
2018-11-20T09:41:54.554Z,4.99
2018-11-20T09:45:21.754Z,4.99
2018-11-20T09:48:11.612Z,5.08
2018-11-20T09:51:01.432Z,4.89
2018-11-20T09:53:53.428Z,4.98
2018-11-20T09:56:43.182Z,4.96
2018-11-20T09:59:32.903Z,4.78
2018-11-20T10:02:22.587Z,4.75
2018-11-20T10:05:12.349Z,4.73
2018-11-20T10:08:02.000Z,4.84
2018-11-20T10:10:51.801Z,4.76
2018-11-20T10:13:41.574Z,4.82
2018-11-20T10:16:31.390Z,4.88
2018-11-20T10:19:21.259Z,4.76
2018-11-20T10:22:11.202Z,4.56
2018-11-20T10:25:01.111Z,4.59
2018-11-20T10:27:50.736Z,4.44
2018-11-20T10:30:40.591Z,4.47
2018-11-20T10:33:30.412Z,4.38
2018-11-20T10:36:20.101Z,4.49
2018-11-20T10:39:09.934Z,4.55
2018-11-20T10:41:59.663Z,4.60
2018-11-20T10:44:49.481Z,4.64
2018-11-20T10:47:39.312Z,4.70
2018-11-20T10:50:29.165Z,4.68
2018-11-20T10:53:18.968Z,4.69
2018-11-20T10:56:08.654Z,4.81
2018-11-20T10:58:58.395Z,4.71
2018-11-20T11:01:48.163Z,4.71
2018-11-20T11:04:27.265Z,4.68
2018-11-20T11:07:17.411Z,4.61
2018-11-20T11:10:08.575Z,4.48
2018-11-20T11:12:58.395Z,4.61
2018-11-20T11:15:48.671Z,4.63
2018-11-20T11:18:38.511Z,4.56
2018-11-20T11:21:28.319Z,4.56
2018-11-20T11:24:18.127Z,4.55
2018-11-20T11:27:07.986Z,4.39
2018-11-20T11:29:57.868Z,4.36
2018-11-20T11:32:47.666Z,4.36
2018-11-20T11:35:37.487Z,4.40
2018-11-20T11:38:27.377Z,4.45
2018-11-20T11:41:17.023Z,4.46
2018-11-20T11:44:06.732Z,4.54
2018-11-20T11:46:56.524Z,4.41
2018-11-20T11:49:46.663Z,4.59
2018-11-20T11:52:36.456Z,4.60
2018-11-20T11:55:26.346Z,4.62
2018-11-20T11:58:18.722Z,4.46
2018-11-20T12:01:06.054Z,4.49
2018-11-20T12:03:55.851Z,4.48
2018-11-20T12:06:45.497Z,4.52
2018-11-20T12:09:35.307Z,4.36
2018-11-20T12:12:24.951Z,4.40
2018-11-20T12:15:14.728Z,4.38
2018-11-20T12:18:04.577Z,4.36
2018-11-20T12:20:54.432Z,4.44
2018-11-20T12:23:44.248Z,4.33
2018-11-20T12:26:34.058Z,4.35
2018-11-20T12:29:23.858Z,4.25
2018-11-20T12:32:13.668Z,4.19
2018-11-20T12:35:03.419Z,4.10
2018-11-20T12:37:53.247Z,4.15
2018-11-20T12:40:43.129Z,4.23
2018-11-20T12:43:32.901Z,4.19
2018-11-20T12:46:22.704Z,4.26
2018-11-20T12:49:12.510Z,4.26
2018-11-20T12:52:02.369Z,4.29
2018-11-20T12:54:52.476Z,4.28
2018-11-20T12:57:41.933Z,4.21
2018-11-20T13:00:31.727Z,4.22
2018-11-20T13:03:21.507Z,4.17
2018-11-20T13:06:11.287Z,4.20
2018-11-20T13:09:01.042Z,4.13
2018-11-20T13:11:50.874Z,4.17
2018-11-20T13:14:43.294Z,4.13
2018-11-20T13:17:33.631Z,4.12
2018-11-20T13:20:22.953Z,4.14
2018-11-20T13:23:12.645Z,4.03
2018-11-20T13:26:02.393Z,4.01
2018-11-20T13:28:52.145Z,4.07
2018-11-20T13:31:42.051Z,4.12
2018-11-20T13:34:31.807Z,4.08
2018-11-20T13:37:21.695Z,4.00
2018-11-20T13:40:11.536Z,3.99
2018-11-20T13:43:03.373Z,4.02
2018-11-20T13:45:53.104Z,4.00
2018-11-20T13:48:42.930Z,4.00
2018-11-20T13:51:32.853Z,4.00
2018-11-20T13:54:22.698Z,3.86
2018-11-20T13:57:12.633Z,3.76
2018-11-20T14:00:02.393Z,3.77
2018-11-20T14:02:52.185Z,3.68
2018-11-20T14:05:41.999Z,3.68
2018-11-20T14:08:31.773Z,3.66
2018-11-20T14:11:22.133Z,3.63
2018-11-20T14:14:11.841Z,3.57
2018-11-20T14:17:01.600Z,3.52
2018-11-20T14:19:51.408Z,3.51
2018-11-20T14:22:39.863Z,3.41
2018-11-20T14:25:49.333Z,3.39
2018-11-20T14:28:39.139Z,3.26
2018-11-20T14:31:29.009Z,3.25
2018-11-20T14:34:18.809Z,3.32
2018-11-20T14:37:08.610Z,3.22
2018-11-20T14:40:11.739Z,3.23
2018-11-20T14:43:01.394Z,3.13
2018-11-20T14:45:51.266Z,3.02
2018-11-20T14:48:40.950Z,2.98
2018-11-20T14:51:30.726Z,3.06
2018-11-20T14:54:20.615Z,2.98
2018-11-20T14:57:10.411Z,2.99
2018-11-20T15:00:00.232Z,2.91
2018-11-20T15:02:50.105Z,3.07
2018-11-20T15:05:39.908Z,2.89
2018-11-20T15:08:30.697Z,2.84
2018-11-20T15:11:20.586Z,2.87
2018-11-20T15:14:10.445Z,2.97
2018-11-20T15:17:00.282Z,3.14
2018-11-20T15:19:50.032Z,3.14
2018-11-20T15:22:39.835Z,3.14
2018-11-20T15:25:29.688Z,3.16
2018-11-20T15:28:19.561Z,3.17
2018-11-20T15:31:09.403Z,3.13
2018-11-20T15:33:59.481Z,3.04
2018-11-20T15:36:49.349Z,3.02
2018-11-20T15:39:39.197Z,3.05
2018-11-20T15:42:28.899Z,3.00
2018-11-20T15:45:18.737Z,3.02
2018-11-20T15:48:08.584Z,2.98
2018-11-20T15:50:58.302Z,3.08
2018-11-20T15:53:48.094Z,3.05
2018-11-20T15:56:37.836Z,3.03
2018-11-20T15:59:21.526Z,3.04
2018-11-20T16:02:11.392Z,2.86
2018-11-20T16:05:01.261Z,2.84
2018-11-20T16:07:51.133Z,2.88
2018-11-20T16:10:40.901Z,2.90
2018-11-20T16:13:30.662Z,2.94
2018-11-20T16:16:20.527Z,2.96
2018-11-20T16:19:10.313Z,2.90
2018-11-20T16:22:00.066Z,2.92
2018-11-20T16:24:49.875Z,3.00
2018-11-20T16:27:39.699Z,2.93
2018-11-20T16:30:31.316Z,2.94
2018-11-20T16:33:21.129Z,2.94
2018-11-20T16:36:10.899Z,3.03
2018-11-20T16:39:00.659Z,3.00
2018-11-20T16:41:42.588Z,2.99
2018-11-20T16:44:32.250Z,2.91
2018-11-20T16:47:21.964Z,2.96
2018-11-20T16:50:11.831Z,2.83
2018-11-20T16:53:01.552Z,2.76
2018-11-20T16:55:51.392Z,2.80
2018-11-20T16:58:41.130Z,2.79
2018-11-20T17:01:31.207Z,2.84
2018-11-20T17:04:20.941Z,2.83
2018-11-20T17:07:10.832Z,2.83
2018-11-20T17:10:00.690Z,2.84
2018-11-20T17:12:50.462Z,2.85
2018-11-20T17:15:40.168Z,2.87
2018-11-20T17:18:29.821Z,2.92
2018-11-20T17:21:19.618Z,2.96
2018-11-20T17:24:09.462Z,2.98
2018-11-20T17:26:59.319Z,2.93
2018-11-20T17:29:49.128Z,2.98
2018-11-20T17:32:38.916Z,2.95
2018-11-20T17:35:28.744Z,2.92
2018-11-20T17:38:18.618Z,2.88
2018-11-20T17:41:08.452Z,2.99
2018-11-20T17:43:58.193Z,2.97
2018-11-20T17:46:48.030Z,2.89
2018-11-20T17:49:37.867Z,2.97
2018-11-20T17:52:47.138Z,2.95
2018-11-20T17:55:36.933Z,2.99
2018-11-20T17:58:26.732Z,2.99
2018-11-20T18:01:16.539Z,3.02
2018-11-20T18:04:06.350Z,3.05
2018-11-20T18:06:56.238Z,3.00
2018-11-20T18:09:46.047Z,3.08
2018-11-20T18:12:29.324Z,3.14
2018-11-20T18:15:19.151Z,3.10
2018-11-20T18:18:08.858Z,3.19
2018-11-20T18:20:58.739Z,3.11
2018-11-20T18:23:48.585Z,3.08
2018-11-20T18:26:38.450Z,2.99
2018-11-20T18:29:28.239Z,3.07
2018-11-20T18:32:18.052Z,3.07
2018-11-20T18:35:07.890Z,3.09
2018-11-20T18:37:57.660Z,3.09
2018-11-20T18:40:47.434Z,3.16
2018-11-20T18:43:37.254Z,3.17
2018-11-20T18:46:27.092Z,3.14
2018-11-20T18:49:16.947Z,3.19
2018-11-20T18:52:07.055Z,3.19
2018-11-20T18:54:48.353Z,3.21
2018-11-20T18:57:37.995Z,3.24
2018-11-20T19:00:22.449Z,3.33
2018-11-20T19:03:12.150Z,3.32
2018-11-20T19:06:01.839Z,3.32
2018-11-20T19:08:51.664Z,3.35
2018-11-20T19:11:41.513Z,3.34
2018-11-20T19:14:31.323Z,3.37
2018-11-20T19:17:21.126Z,3.36
2018-11-20T19:20:10.928Z,3.39
2018-11-20T19:23:00.697Z,3.48
2018-11-20T19:25:50.537Z,3.55
2018-11-20T19:28:40.335Z,3.61
2018-11-20T19:31:30.183Z,3.65
2018-11-20T19:34:19.968Z,3.69
2018-11-20T19:37:09.907Z,3.74
2018-11-20T19:39:59.792Z,3.74
2018-11-20T19:42:49.691Z,3.72
2018-11-20T19:45:39.492Z,3.80
2018-11-20T19:48:29.314Z,3.81
2018-11-20T19:51:19.122Z,3.86
2018-11-20T19:54:08.941Z,3.90
2018-11-20T19:56:58.756Z,3.88
2018-11-20T19:59:48.532Z,3.96
2018-11-20T20:02:38.341Z,3.91
2018-11-20T20:05:28.310Z,3.90
2018-11-20T20:08:18.151Z,3.96
2018-11-20T20:11:07.949Z,3.98
2018-11-20T20:13:57.778Z,4.00
2018-11-20T20:16:47.523Z,3.90
2018-11-20T20:19:37.318Z,3.90
2018-11-20T20:22:27.179Z,3.90
2018-11-20T20:25:09.685Z,3.88
2018-11-20T20:27:59.466Z,3.88
2018-11-20T20:30:49.314Z,3.99
2018-11-20T20:33:39.051Z,4.01
2018-11-20T20:36:29.450Z,3.92
2018-11-20T20:39:19.153Z,3.92
2018-11-20T20:42:08.962Z,3.88
2018-11-20T20:44:58.735Z,3.90
2018-11-20T20:47:48.571Z,3.91
2018-11-20T20:50:38.372Z,3.89
2018-11-20T20:53:28.191Z,3.83
2018-11-20T20:56:17.959Z,3.88
2018-11-20T20:59:26.528Z,3.91
2018-11-20T21:02:16.298Z,4.01
2018-11-20T21:05:06.210Z,3.97
2018-11-20T21:07:56.216Z,4.02
2018-11-20T21:10:46.052Z,3.96
2018-11-20T21:13:35.803Z,3.96
2018-11-20T21:16:45.436Z,3.92
2018-11-20T21:19:35.204Z,3.93
2018-11-20T21:22:25.055Z,4.00
2018-11-20T21:25:14.973Z,4.06
2018-11-20T21:28:04.737Z,4.04
2018-11-20T21:30:54.979Z,4.13
2018-11-20T21:33:32.954Z,4.14
2018-11-20T21:36:11.135Z,4.16
2018-11-20T21:39:00.864Z,4.10
2018-11-20T21:41:50.656Z,4.08
2018-11-20T21:44:40.515Z,4.12
2018-11-20T21:47:30.281Z,4.20
2018-11-20T21:50:20.133Z,4.20
2018-11-20T21:53:09.910Z,4.10
2018-11-20T21:55:59.817Z,3.97
2018-11-20T21:58:49.709Z,3.96
2018-11-20T22:01:39.587Z,3.90
2018-11-20T22:04:29.397Z,4.00
2018-11-20T22:07:19.203Z,3.91
2018-11-20T22:10:08.960Z,3.90
2018-11-20T22:12:58.818Z,3.89
2018-11-20T22:15:48.619Z,3.93
2018-11-20T22:18:38.351Z,3.93
2018-11-20T22:21:28.226Z,3.87
2018-11-20T22:24:18.059Z,3.84
2018-11-20T22:27:07.852Z,3.81
2018-11-20T22:29:57.682Z,3.80
2018-11-20T22:32:47.490Z,3.80
2018-11-20T22:35:37.460Z,3.80
2018-11-20T22:38:27.192Z,3.77
2018-11-20T22:41:17.050Z,3.71
2018-11-20T22:44:06.803Z,3.74
2018-11-20T22:46:56.593Z,3.73
2018-11-20T22:49:46.383Z,3.80
2018-11-20T22:52:36.157Z,3.78
2018-11-20T22:55:26.539Z,3.83
2018-11-20T22:58:16.383Z,3.83
2018-11-20T23:01:06.180Z,3.82
2018-11-20T23:03:55.983Z,3.77
2018-11-20T23:06:43.459Z,3.77
2018-11-20T23:09:14.713Z,3.82
2018-11-20T23:11:46.048Z,3.78
2018-11-20T23:14:19.163Z,3.85
2018-11-20T23:16:50.448Z,3.76
2018-11-20T23:19:21.682Z,3.79
2018-11-20T23:21:52.973Z,3.78
2018-11-20T23:24:24.213Z,3.82
2018-11-20T23:26:55.448Z,3.78
2018-11-20T23:29:26.752Z,3.73
2018-11-20T23:31:57.973Z,3.82
2018-11-20T23:34:29.269Z,3.87
2018-11-20T23:37:00.500Z,3.89
2018-11-20T23:39:31.792Z,3.81
2018-11-20T23:42:03.034Z,3.76
2018-11-20T23:44:34.272Z,3.75
2018-11-20T23:47:05.574Z,3.73
2018-11-20T23:49:36.943Z,3.81
2018-11-20T23:52:08.161Z,3.81
2018-11-20T23:54:39.421Z,3.83
2018-11-20T23:57:10.670Z,3.83
2018-11-20T23:59:41.931Z,3.76
